sensor_id;sensor_type;location;lat;lon;timestamp;P1;durP1;ratioP1;P2;durP2;ratioP2
67986;SDS011;54767;53.800;15.956;2023-07-13T00:01:10;9.00;;;5.90;;
67986;SDS011;54767;53.800;15.956;2023-07-13T00:03:40;8.20;;;6.00;;
67986;SDS011;54767;53.800;15.956;2023-07-13T00:06:09;9.90;;;6.40;;
67986;SDS011;54767;53.800;15.956;2023-07-13T00:08:38;10.90;;;7.20;;
67986;SDS011;54767;53.800;15.956;2023-07-13T00:11:07;10.10;;;7.80;;
67986;SDS011;54767;53.800;15.956;2023-07-13T00:13:35;11.80;;;6.90;;
67986;SDS011;54767;53.800;15.956;2023-07-13T00:16:06;11.60;;;7.80;;
67986;SDS011;54767;53.800;15.956;2023-07-13T00:18:35;10.40;;;6.50;;
67986;SDS011;54767;53.800;15.956;2023-07-13T00:21:04;6.80;;;6.00;;
67986;SDS011;54767;53.800;15.956;2023-07-13T00:23:38;6.80;;;5.30;;
67986;SDS011;54767;53.800;15.956;2023-07-13T00:26:08;9.30;;;6.50;;
67986;SDS011;54767;53.800;15.956;2023-07-13T00:28:39;8.50;;;5.70;;
67986;SDS011;54767;53.800;15.956;2023-07-13T00:31:10;6.20;;;5.20;;
67986;SDS011;54767;53.800;15.956;2023-07-13T00:33:40;7.10;;;5.40;;
67986;SDS011;54767;53.800;15.956;2023-07-13T00:36:10;6.30;;;5.50;;
67986;SDS011;54767;53.800;15.956;2023-07-13T00:38:39;7.50;;;5.80;;
67986;SDS011;54767;53.800;15.956;2023-07-13T00:41:08;7.30;;;5.30;;
67986;SDS011;54767;53.800;15.956;2023-07-13T00:43:36;11.90;;;4.90;;
67986;SDS011;54767;53.800;15.956;2023-07-13T00:46:09;7.70;;;4.70;;
67986;SDS011;54767;53.800;15.956;2023-07-13T00:48:41;6.10;;;4.40;;
67986;SDS011;54767;53.800;15.956;2023-07-13T00:51:13;7.60;;;4.10;;
67986;SDS011;54767;53.800;15.956;2023-07-13T00:53:44;8.90;;;4.30;;
67986;SDS011;54767;53.800;15.956;2023-07-13T00:56:13;7.30;;;4.30;;
67986;SDS011;54767;53.800;15.956;2023-07-13T00:58:42;7.60;;;4.10;;
67986;SDS011;54767;53.800;15.956;2023-07-13T01:01:10;6.00;;;3.60;;
67986;SDS011;54767;53.800;15.956;2023-07-13T01:03:40;5.80;;;3.70;;
67986;SDS011;54767;53.800;15.956;2023-07-13T01:06:09;5.60;;;4.10;;
67986;SDS011;54767;53.800;15.956;2023-07-13T01:08:39;6.40;;;3.70;;
67986;SDS011;54767;53.800;15.956;2023-07-13T01:11:08;7.50;;;3.80;;
67986;SDS011;54767;53.800;15.956;2023-07-13T01:13:36;9.30;;;4.30;;
67986;SDS011;54767;53.800;15.956;2023-07-13T01:16:11;8.00;;;3.90;;
67986;SDS011;54767;53.800;15.956;2023-07-13T01:18:43;4.20;;;3.60;;
67986;SDS011;54767;53.800;15.956;2023-07-13T01:21:11;8.20;;;3.80;;
67986;SDS011;54767;53.800;15.956;2023-07-13T01:23:39;7.20;;;3.50;;
67986;SDS011;54767;53.800;15.956;2023-07-13T01:26:08;8.30;;;3.60;;
67986;SDS011;54767;53.800;15.956;2023-07-13T01:28:37;5.10;;;3.70;;
67986;SDS011;54767;53.800;15.956;2023-07-13T01:31:05;9.10;;;3.70;;
67986;SDS011;54767;53.800;15.956;2023-07-13T01:33:34;11.00;;;4.00;;
67986;SDS011;54767;53.800;15.956;2023-07-13T01:36:05;5.90;;;3.70;;
67986;SDS011;54767;53.800;15.956;2023-07-13T01:38:36;5.00;;;3.70;;
67986;SDS011;54767;53.800;15.956;2023-07-13T01:41:04;6.20;;;4.00;;
67986;SDS011;54767;53.800;15.956;2023-07-13T01:43:33;5.50;;;3.60;;
67986;SDS011;54767;53.800;15.956;2023-07-13T01:46:01;6.60;;;3.70;;
67986;SDS011;54767;53.800;15.956;2023-07-13T01:48:50;5.80;;;3.60;;
67986;SDS011;54767;53.800;15.956;2023-07-13T01:51:19;8.00;;;3.80;;
67986;SDS011;54767;53.800;15.956;2023-07-13T01:53:48;8.70;;;3.80;;
67986;SDS011;54767;53.800;15.956;2023-07-13T01:56:18;7.60;;;4.20;;
67986;SDS011;54767;53.800;15.956;2023-07-13T01:58:46;7.10;;;3.70;;
67986;SDS011;54767;53.800;15.956;2023-07-13T02:01:15;4.40;;;4.00;;
67986;SDS011;54767;53.800;15.956;2023-07-13T02:03:44;6.90;;;4.20;;
67986;SDS011;54767;53.800;15.956;2023-07-13T02:06:12;6.60;;;4.30;;
67986;SDS011;54767;53.800;15.956;2023-07-13T02:08:41;6.20;;;4.10;;
67986;SDS011;54767;53.800;15.956;2023-07-13T02:11:10;5.70;;;4.10;;
67986;SDS011;54767;53.800;15.956;2023-07-13T02:13:39;12.20;;;5.10;;
67986;SDS011;54767;53.800;15.956;2023-07-13T02:16:07;7.30;;;5.40;;
67986;SDS011;54767;53.800;15.956;2023-07-13T02:18:36;6.70;;;5.10;;
67986;SDS011;54767;53.800;15.956;2023-07-13T02:21:05;6.00;;;4.90;;
67986;SDS011;54767;53.800;15.956;2023-07-13T02:23:34;5.70;;;4.80;;
67986;SDS011;54767;53.800;15.956;2023-07-13T02:26:03;8.00;;;4.30;;
67986;SDS011;54767;53.800;15.956;2023-07-13T02:31:10;7.90;;;4.50;;
67986;SDS011;54767;53.800;15.956;2023-07-13T02:33:41;6.70;;;4.30;;
67986;SDS011;54767;53.800;15.956;2023-07-13T02:36:10;5.80;;;3.90;;
67986;SDS011;54767;53.800;15.956;2023-07-13T02:38:40;7.00;;;4.10;;
67986;SDS011;54767;53.800;15.956;2023-07-13T02:41:08;7.80;;;3.80;;
67986;SDS011;54767;53.800;15.956;2023-07-13T02:43:37;8.10;;;3.90;;
67986;SDS011;54767;53.800;15.956;2023-07-13T02:46:06;6.80;;;3.50;;
67986;SDS011;54767;53.800;15.956;2023-07-13T02:48:36;6.80;;;3.50;;
67986;SDS011;54767;53.800;15.956;2023-07-13T02:51:07;5.80;;;4.00;;
67986;SDS011;54767;53.800;15.956;2023-07-13T02:53:36;8.30;;;3.90;;
67986;SDS011;54767;53.800;15.956;2023-07-13T02:56:05;5.90;;;3.80;;
67986;SDS011;54767;53.800;15.956;2023-07-13T02:58:34;6.50;;;3.60;;
67986;SDS011;54767;53.800;15.956;2023-07-13T03:01:08;6.70;;;3.50;;
67986;SDS011;54767;53.800;15.956;2023-07-13T03:03:38;5.70;;;3.70;;
67986;SDS011;54767;53.800;15.956;2023-07-13T03:06:07;10.30;;;3.90;;
67986;SDS011;54767;53.800;15.956;2023-07-13T03:08:37;9.50;;;3.90;;
67986;SDS011;54767;53.800;15.956;2023-07-13T03:11:06;10.40;;;4.00;;
67986;SDS011;54767;53.800;15.956;2023-07-13T03:13:40;7.50;;;4.20;;
67986;SDS011;54767;53.800;15.956;2023-07-13T03:16:09;9.80;;;4.00;;
67986;SDS011;54767;53.800;15.956;2023-07-13T03:18:42;9.70;;;3.80;;
67986;SDS011;54767;53.800;15.956;2023-07-13T03:21:11;10.70;;;3.90;;
67986;SDS011;54767;53.800;15.956;2023-07-13T03:23:39;15.50;;;4.20;;
67986;SDS011;54767;53.800;15.956;2023-07-13T03:26:09;13.40;;;4.50;;
67986;SDS011;54767;53.800;15.956;2023-07-13T03:28:46;11.90;;;4.80;;
67986;SDS011;54767;53.800;15.956;2023-07-13T03:31:15;11.20;;;4.80;;
67986;SDS011;54767;53.800;15.956;2023-07-13T03:33:47;12.60;;;5.20;;
67986;SDS011;54767;53.800;15.956;2023-07-13T03:36:17;14.10;;;6.10;;
67986;SDS011;54767;53.800;15.956;2023-07-13T03:38:48;12.70;;;6.20;;
67986;SDS011;54767;53.800;15.956;2023-07-13T03:41:18;17.90;;;6.80;;
67986;SDS011;54767;53.800;15.956;2023-07-13T03:43:46;13.80;;;7.60;;
67986;SDS011;54767;53.800;15.956;2023-07-13T03:46:18;13.90;;;7.40;;
67986;SDS011;54767;53.800;15.956;2023-07-13T03:48:47;15.10;;;7.10;;
67986;SDS011;54767;53.800;15.956;2023-07-13T03:51:16;11.30;;;5.50;;
67986;SDS011;54767;53.800;15.956;2023-07-13T03:53:45;12.80;;;5.00;;
67986;SDS011;54767;53.800;15.956;2023-07-13T03:56:16;11.60;;;5.00;;
67986;SDS011;54767;53.800;15.956;2023-07-13T03:58:46;12.00;;;5.30;;
67986;SDS011;54767;53.800;15.956;2023-07-13T04:01:17;8.00;;;4.00;;
67986;SDS011;54767;53.800;15.956;2023-07-13T04:03:47;9.00;;;4.10;;
67986;SDS011;54767;53.800;15.956;2023-07-13T04:06:20;10.00;;;4.30;;
67986;SDS011;54767;53.800;15.956;2023-07-13T04:08:53;8.90;;;4.40;;
67986;SDS011;54767;53.800;15.956;2023-07-13T04:11:25;6.70;;;4.30;;
67986;SDS011;54767;53.800;15.956;2023-07-13T04:13:56;8.30;;;4.10;;
67986;SDS011;54767;53.800;15.956;2023-07-13T04:16:25;6.20;;;4.30;;
67986;SDS011;54767;53.800;15.956;2023-07-13T04:18:54;11.90;;;4.70;;
67986;SDS011;54767;53.800;15.956;2023-07-13T04:21:29;6.00;;;4.30;;
67986;SDS011;54767;53.800;15.956;2023-07-13T04:23:58;9.00;;;4.90;;
67986;SDS011;54767;53.800;15.956;2023-07-13T04:26:27;10.10;;;4.80;;
67986;SDS011;54767;53.800;15.956;2023-07-13T04:28:57;7.70;;;5.30;;
67986;SDS011;54767;53.800;15.956;2023-07-13T04:31:25;7.40;;;5.40;;
67986;SDS011;54767;53.800;15.956;2023-07-13T04:33:54;12.10;;;5.90;;
67986;SDS011;54767;53.800;15.956;2023-07-13T04:36:23;10.60;;;6.40;;
67986;SDS011;54767;53.800;15.956;2023-07-13T04:38:54;15.10;;;6.40;;
67986;SDS011;54767;53.800;15.956;2023-07-13T04:41:23;12.50;;;6.40;;
67986;SDS011;54767;53.800;15.956;2023-07-13T04:43:51;13.10;;;6.10;;
67986;SDS011;54767;53.800;15.956;2023-07-13T04:46:23;12.20;;;6.70;;
67986;SDS011;54767;53.800;15.956;2023-07-13T04:48:52;9.80;;;6.10;;
67986;SDS011;54767;53.800;15.956;2023-07-13T04:51:21;13.00;;;6.30;;
67986;SDS011;54767;53.800;15.956;2023-07-13T04:53:50;9.50;;;6.50;;
67986;SDS011;54767;53.800;15.956;2023-07-13T04:56:25;8.40;;;6.00;;
67986;SDS011;54767;53.800;15.956;2023-07-13T04:58:54;9.90;;;7.10;;
67986;SDS011;54767;53.800;15.956;2023-07-13T05:01:22;11.20;;;6.40;;
67986;SDS011;54767;53.800;15.956;2023-07-13T05:03:51;9.40;;;6.20;;
67986;SDS011;54767;53.800;15.956;2023-07-13T05:06:20;9.00;;;6.30;;
67986;SDS011;54767;53.800;15.956;2023-07-13T05:08:49;7.60;;;6.00;;
67986;SDS011;54767;53.800;15.956;2023-07-13T05:11:17;7.70;;;5.90;;
67986;SDS011;54767;53.800;15.956;2023-07-13T05:13:46;10.30;;;6.00;;
67986;SDS011;54767;53.800;15.956;2023-07-13T05:16:14;8.00;;;5.40;;
67986;SDS011;54767;53.800;15.956;2023-07-13T05:18:42;7.30;;;5.50;;
67986;SDS011;54767;53.800;15.956;2023-07-13T05:21:11;7.20;;;5.70;;
67986;SDS011;54767;53.800;15.956;2023-07-13T05:23:40;8.10;;;5.60;;
67986;SDS011;54767;53.800;15.956;2023-07-13T05:26:10;8.90;;;5.40;;
67986;SDS011;54767;53.800;15.956;2023-07-13T05:28:38;6.40;;;5.50;;
67986;SDS011;54767;53.800;15.956;2023-07-13T05:31:08;8.20;;;5.30;;
67986;SDS011;54767;53.800;15.956;2023-07-13T05:33:38;6.80;;;5.20;;
67986;SDS011;54767;53.800;15.956;2023-07-13T05:36:07;8.70;;;5.20;;
67986;SDS011;54767;53.800;15.956;2023-07-13T05:38:36;10.90;;;5.40;;
67986;SDS011;54767;53.800;15.956;2023-07-13T05:41:04;6.80;;;5.50;;
67986;SDS011;54767;53.800;15.956;2023-07-13T05:43:33;7.30;;;5.20;;
67986;SDS011;54767;53.800;15.956;2023-07-13T05:46:02;6.50;;;4.80;;
67986;SDS011;54767;53.800;15.956;2023-07-13T05:48:30;8.40;;;4.60;;
67986;SDS011;54767;53.800;15.956;2023-07-13T05:50:59;7.70;;;4.30;;
67986;SDS011;54767;53.800;15.956;2023-07-13T05:53:28;6.80;;;4.80;;
67986;SDS011;54767;53.800;15.956;2023-07-13T05:55:56;5.70;;;4.50;;
67986;SDS011;54767;53.800;15.956;2023-07-13T05:58:29;4.20;;;3.80;;
67986;SDS011;54767;53.800;15.956;2023-07-13T06:00:59;6.20;;;3.90;;
67986;SDS011;54767;53.800;15.956;2023-07-13T06:03:30;4.30;;;3.90;;
67986;SDS011;54767;53.800;15.956;2023-07-13T06:05:58;4.40;;;3.80;;
67986;SDS011;54767;53.800;15.956;2023-07-13T06:08:31;4.40;;;3.80;;
67986;SDS011;54767;53.800;15.956;2023-07-13T06:11:14;4.20;;;3.40;;
67986;SDS011;54767;53.800;15.956;2023-07-13T06:13:47;3.60;;;3.30;;
67986;SDS011;54767;53.800;15.956;2023-07-13T06:16:17;4.10;;;3.50;;
67986;SDS011;54767;53.800;15.956;2023-07-13T06:18:46;4.60;;;2.90;;
67986;SDS011;54767;53.800;15.956;2023-07-13T06:21:19;4.70;;;3.00;;
67986;SDS011;54767;53.800;15.956;2023-07-13T06:23:49;6.10;;;2.90;;
67986;SDS011;54767;53.800;15.956;2023-07-13T06:26:19;6.00;;;3.50;;
67986;SDS011;54767;53.800;15.956;2023-07-13T06:28:48;5.20;;;3.00;;
67986;SDS011;54767;53.800;15.956;2023-07-13T06:31:16;4.30;;;2.80;;
67986;SDS011;54767;53.800;15.956;2023-07-13T06:33:45;3.90;;;3.00;;
67986;SDS011;54767;53.800;15.956;2023-07-13T06:36:13;5.30;;;3.00;;
67986;SDS011;54767;53.800;15.956;2023-07-13T06:38:42;5.20;;;2.90;;
67986;SDS011;54767;53.800;15.956;2023-07-13T06:41:11;3.50;;;2.90;;
67986;SDS011;54767;53.800;15.956;2023-07-13T06:43:40;3.90;;;2.70;;
67986;SDS011;54767;53.800;15.956;2023-07-13T06:46:08;5.60;;;2.80;;
67986;SDS011;54767;53.800;15.956;2023-07-13T06:48:37;5.30;;;2.60;;
67986;SDS011;54767;53.800;15.956;2023-07-13T06:51:06;2.60;;;2.40;;
67986;SDS011;54767;53.800;15.956;2023-07-13T06:53:34;5.60;;;2.70;;
67986;SDS011;54767;53.800;15.956;2023-07-13T06:56:03;3.80;;;2.40;;
67986;SDS011;54767;53.800;15.956;2023-07-13T06:58:33;6.00;;;2.60;;
67986;SDS011;54767;53.800;15.956;2023-07-13T07:01:02;2.40;;;2.20;;
67986;SDS011;54767;53.800;15.956;2023-07-13T07:03:35;3.20;;;2.30;;
67986;SDS011;54767;53.800;15.956;2023-07-13T07:06:15;4.00;;;2.20;;
67986;SDS011;54767;53.800;15.956;2023-07-13T07:08:45;3.80;;;2.10;;
67986;SDS011;54767;53.800;15.956;2023-07-13T07:11:16;2.50;;;2.10;;
67986;SDS011;54767;53.800;15.956;2023-07-13T07:13:46;3.50;;;2.50;;
67986;SDS011;54767;53.800;15.956;2023-07-13T07:16:14;2.70;;;2.20;;
67986;SDS011;54767;53.800;15.956;2023-07-13T07:18:43;3.90;;;2.40;;
67986;SDS011;54767;53.800;15.956;2023-07-13T07:21:13;5.50;;;2.60;;
67986;SDS011;54767;53.800;15.956;2023-07-13T07:23:42;3.70;;;2.40;;
67986;SDS011;54767;53.800;15.956;2023-07-13T07:26:11;4.10;;;2.40;;
67986;SDS011;54767;53.800;15.956;2023-07-13T07:28:40;4.70;;;2.30;;
67986;SDS011;54767;53.800;15.956;2023-07-13T07:31:13;2.40;;;2.10;;
67986;SDS011;54767;53.800;15.956;2023-07-13T07:33:45;3.30;;;2.30;;
67986;SDS011;54767;53.800;15.956;2023-07-13T07:36:13;5.60;;;2.40;;
67986;SDS011;54767;53.800;15.956;2023-07-13T07:38:45;3.90;;;2.40;;
67986;SDS011;54767;53.800;15.956;2023-07-13T07:41:13;3.70;;;2.10;;
67986;SDS011;54767;53.800;15.956;2023-07-13T07:43:44;3.90;;;2.00;;
67986;SDS011;54767;53.800;15.956;2023-07-13T07:46:12;3.60;;;2.20;;
67986;SDS011;54767;53.800;15.956;2023-07-13T07:48:42;4.00;;;2.30;;
67986;SDS011;54767;53.800;15.956;2023-07-13T07:51:10;3.70;;;2.10;;
67986;SDS011;54767;53.800;15.956;2023-07-13T07:53:38;3.10;;;2.00;;
67986;SDS011;54767;53.800;15.956;2023-07-13T07:56:07;2.50;;;2.00;;
67986;SDS011;54767;53.800;15.956;2023-07-13T07:58:38;2.80;;;2.10;;
67986;SDS011;54767;53.800;15.956;2023-07-13T08:01:09;3.90;;;2.20;;
67986;SDS011;54767;53.800;15.956;2023-07-13T08:03:40;3.10;;;2.10;;
67986;SDS011;54767;53.800;15.956;2023-07-13T08:06:12;4.80;;;2.10;;
67986;SDS011;54767;53.800;15.956;2023-07-13T08:09:01;4.60;;;2.10;;
67986;SDS011;54767;53.800;15.956;2023-07-13T08:11:31;2.10;;;1.70;;
67986;SDS011;54767;53.800;15.956;2023-07-13T08:14:03;3.00;;;2.00;;
67986;SDS011;54767;53.800;15.956;2023-07-13T08:16:32;5.20;;;2.40;;
67986;SDS011;54767;53.800;15.956;2023-07-13T08:19:01;3.80;;;2.10;;
67986;SDS011;54767;53.800;15.956;2023-07-13T08:21:29;2.10;;;1.90;;
67986;SDS011;54767;53.800;15.956;2023-07-13T08:23:58;2.80;;;1.90;;
67986;SDS011;54767;53.800;15.956;2023-07-13T08:26:26;3.30;;;1.70;;
67986;SDS011;54767;53.800;15.956;2023-07-13T08:28:55;2.90;;;2.00;;
67986;SDS011;54767;53.800;15.956;2023-07-13T08:31:23;3.10;;;2.10;;
67986;SDS011;54767;53.800;15.956;2023-07-13T08:33:51;4.80;;;1.70;;
67986;SDS011;54767;53.800;15.956;2023-07-13T08:36:20;2.20;;;1.80;;
67986;SDS011;54767;53.800;15.956;2023-07-13T08:38:48;2.60;;;1.80;;
67986;SDS011;54767;53.800;15.956;2023-07-13T08:41:17;2.60;;;1.80;;
67986;SDS011;54767;53.800;15.956;2023-07-13T08:43:47;3.40;;;2.00;;
67986;SDS011;54767;53.800;15.956;2023-07-13T08:46:38;2.30;;;1.60;;
67986;SDS011;54767;53.800;15.956;2023-07-13T08:49:11;2.80;;;1.90;;
67986;SDS011;54767;53.800;15.956;2023-07-13T08:51:50;2.30;;;2.10;;
67986;SDS011;54767;53.800;15.956;2023-07-13T08:56:58;2.40;;;1.50;;
67986;SDS011;54767;53.800;15.956;2023-07-13T08:59:31;3.20;;;1.80;;
67986;SDS011;54767;53.800;15.956;2023-07-13T09:04:36;2.80;;;1.80;;
67986;SDS011;54767;53.800;15.956;2023-07-13T09:13:22;2.30;;;1.50;;
67986;SDS011;54767;53.800;15.956;2023-07-13T09:15:40;3.60;;;1.70;;
67986;SDS011;54767;53.800;15.956;2023-07-13T09:18:14;1.90;;;1.80;;
67986;SDS011;54767;53.800;15.956;2023-07-13T09:20:54;2.30;;;1.70;;
67986;SDS011;54767;53.800;15.956;2023-07-13T09:23:39;2.50;;;1.70;;
67986;SDS011;54767;53.800;15.956;2023-07-13T09:26:12;2.30;;;1.50;;
67986;SDS011;54767;53.800;15.956;2023-07-13T09:28:43;2.20;;;1.70;;
67986;SDS011;54767;53.800;15.956;2023-07-13T09:31:23;2.60;;;1.40;;
67986;SDS011;54767;53.800;15.956;2023-07-13T09:34:04;4.20;;;1.60;;
67986;SDS011;54767;53.800;15.956;2023-07-13T09:36:40;1.90;;;1.50;;
67986;SDS011;54767;53.800;15.956;2023-07-13T09:39:20;4.00;;;1.70;;
67986;SDS011;54767;53.800;15.956;2023-07-13T09:42:00;2.50;;;1.70;;
67986;SDS011;54767;53.800;15.956;2023-07-13T09:47:28;2.60;;;1.80;;
67986;SDS011;54767;53.800;15.956;2023-07-13T09:50:02;2.00;;;1.80;;
67986;SDS011;54767;53.800;15.956;2023-07-13T09:52:41;2.90;;;1.70;;
67986;SDS011;54767;53.800;15.956;2023-07-13T10:00:44;3.10;;;1.70;;
67986;SDS011;54767;53.800;15.956;2023-07-13T10:03:26;2.10;;;1.30;;
67986;SDS011;54767;53.800;15.956;2023-07-13T10:06:00;3.50;;;1.90;;
67986;SDS011;54767;53.800;15.956;2023-07-13T10:08:41;2.40;;;1.50;;
67986;SDS011;54767;53.800;15.956;2023-07-13T10:11:18;1.90;;;1.70;;
67986;SDS011;54767;53.800;15.956;2023-07-13T10:13:53;3.50;;;1.90;;
67986;SDS011;54767;53.800;15.956;2023-07-13T10:16:25;3.90;;;1.90;;
67986;SDS011;54767;53.800;15.956;2023-07-13T10:19:05;1.90;;;1.70;;
67986;SDS011;54767;53.800;15.956;2023-07-13T10:21:41;2.40;;;1.70;;
67986;SDS011;54767;53.800;15.956;2023-07-13T10:24:41;2.40;;;1.70;;
67986;SDS011;54767;53.800;15.956;2023-07-13T10:27:16;2.20;;;2.00;;
67986;SDS011;54767;53.800;15.956;2023-07-13T10:29:48;2.40;;;1.50;;
67986;SDS011;54767;53.800;15.956;2023-07-13T10:32:22;3.70;;;1.80;;
67986;SDS011;54767;53.800;15.956;2023-07-13T10:34:53;2.20;;;1.50;;
67986;SDS011;54767;53.800;15.956;2023-07-13T10:37:25;3.00;;;1.80;;
67986;SDS011;54767;53.800;15.956;2023-07-13T10:39:58;2.00;;;1.70;;
67986;SDS011;54767;53.800;15.956;2023-07-13T10:42:39;3.60;;;1.80;;
67986;SDS011;54767;53.800;15.956;2023-07-13T10:45:15;2.00;;;1.50;;
67986;SDS011;54767;53.800;15.956;2023-07-13T10:47:50;2.00;;;1.90;;
67986;SDS011;54767;53.800;15.956;2023-07-13T10:50:25;4.40;;;1.60;;
67986;SDS011;54767;53.800;15.956;2023-07-13T10:53:01;4.70;;;1.70;;
67986;SDS011;54767;53.800;15.956;2023-07-13T10:58:23;2.20;;;1.70;;
67986;SDS011;54767;53.800;15.956;2023-07-13T11:03:28;2.80;;;1.70;;
67986;SDS011;54767;53.800;15.956;2023-07-13T11:06:09;2.40;;;1.50;;
67986;SDS011;54767;53.800;15.956;2023-07-13T11:11:37;2.00;;;1.40;;
67986;SDS011;54767;53.800;15.956;2023-07-13T11:15:00;2.50;;;1.50;;
67986;SDS011;54767;53.800;15.956;2023-07-13T11:22:53;2.00;;;1.30;;
67986;SDS011;54767;53.800;15.956;2023-07-13T11:26:59;1.80;;;1.40;;
67986;SDS011;54767;53.800;15.956;2023-07-13T11:32:21;2.90;;;1.60;;
67986;SDS011;54767;53.800;15.956;2023-07-13T11:35:13;3.70;;;1.70;;
67986;SDS011;54767;53.800;15.956;2023-07-13T11:37:51;4.40;;;1.70;;
67986;SDS011;54767;53.800;15.956;2023-07-13T11:40:47;3.70;;;1.60;;
67986;SDS011;54767;53.800;15.956;2023-07-13T11:43:34;2.10;;;1.50;;
67986;SDS011;54767;53.800;15.956;2023-07-13T11:46:30;3.50;;;1.30;;
67986;SDS011;54767;53.800;15.956;2023-07-13T11:49:45;1.70;;;1.60;;
67986;SDS011;54767;53.800;15.956;2023-07-13T11:53:04;2.50;;;1.70;;
67986;SDS011;54767;53.800;15.956;2023-07-13T11:55:40;2.00;;;1.30;;
67986;SDS011;54767;53.800;15.956;2023-07-13T11:58:19;1.90;;;1.30;;
67986;SDS011;54767;53.800;15.956;2023-07-13T12:00:52;1.90;;;1.50;;
67986;SDS011;54767;53.800;15.956;2023-07-13T12:03:25;2.30;;;1.80;;
67986;SDS011;54767;53.800;15.956;2023-07-13T12:06:06;1.70;;;1.60;;
67986;SDS011;54767;53.800;15.956;2023-07-13T12:08:52;1.80;;;1.60;;
67986;SDS011;54767;53.800;15.956;2023-07-13T12:11:21;3.10;;;1.50;;
67986;SDS011;54767;53.800;15.956;2023-07-13T12:13:50;1.70;;;1.50;;
67986;SDS011;54767;53.800;15.956;2023-07-13T12:16:33;5.00;;;1.70;;
67986;SDS011;54767;53.800;15.956;2023-07-13T12:19:02;3.00;;;1.50;;
67986;SDS011;54767;53.800;15.956;2023-07-13T12:21:32;3.10;;;1.50;;
67986;SDS011;54767;53.800;15.956;2023-07-13T12:24:05;1.80;;;1.30;;
67986;SDS011;54767;53.800;15.956;2023-07-13T12:26:50;1.40;;;1.30;;
67986;SDS011;54767;53.800;15.956;2023-07-13T12:29:20;1.30;;;1.20;;
67986;SDS011;54767;53.800;15.956;2023-07-13T12:34:21;2.40;;;1.20;;
67986;SDS011;54767;53.800;15.956;2023-07-13T12:36:55;1.30;;;1.20;;
67986;SDS011;54767;53.800;15.956;2023-07-13T12:39:32;1.50;;;1.30;;
67986;SDS011;54767;53.800;15.956;2023-07-13T12:42:19;1.90;;;1.50;;
67986;SDS011;54767;53.800;15.956;2023-07-13T12:45:18;2.20;;;1.80;;
67986;SDS011;54767;53.800;15.956;2023-07-13T12:47:49;4.50;;;1.60;;
67986;SDS011;54767;53.800;15.956;2023-07-13T12:50:22;4.40;;;1.50;;
67986;SDS011;54767;53.800;15.956;2023-07-13T12:53:03;2.10;;;1.50;;
67986;SDS011;54767;53.800;15.956;2023-07-13T12:55:49;2.00;;;1.60;;
67986;SDS011;54767;53.800;15.956;2023-07-13T13:01:14;1.90;;;1.60;;
67986;SDS011;54767;53.800;15.956;2023-07-13T13:03:50;3.50;;;1.60;;
67986;SDS011;54767;53.800;15.956;2023-07-13T13:06:26;2.00;;;1.50;;
67986;SDS011;54767;53.800;15.956;2023-07-13T13:08:57;2.80;;;1.40;;
67986;SDS011;54767;53.800;15.956;2023-07-13T13:11:28;2.00;;;1.80;;
67986;SDS011;54767;53.800;15.956;2023-07-13T13:13:57;4.90;;;1.40;;
67986;SDS011;54767;53.800;15.956;2023-07-13T13:19:16;2.20;;;1.40;;
67986;SDS011;54767;53.800;15.956;2023-07-13T13:21:45;1.60;;;1.50;;
67986;SDS011;54767;53.800;15.956;2023-07-13T13:24:18;2.20;;;1.40;;
67986;SDS011;54767;53.800;15.956;2023-07-13T13:26:48;2.40;;;1.50;;
67986;SDS011;54767;53.800;15.956;2023-07-13T13:29:20;1.80;;;1.40;;
67986;SDS011;54767;53.800;15.956;2023-07-13T13:31:54;1.80;;;1.60;;
67986;SDS011;54767;53.800;15.956;2023-07-13T13:34:24;3.20;;;1.70;;
67986;SDS011;54767;53.800;15.956;2023-07-13T13:36:53;1.60;;;1.50;;
67986;SDS011;54767;53.800;15.956;2023-07-13T13:39:34;1.60;;;1.40;;
67986;SDS011;54767;53.800;15.956;2023-07-13T13:42:05;2.60;;;1.70;;
67986;SDS011;54767;53.800;15.956;2023-07-13T13:44:33;2.10;;;1.80;;
67986;SDS011;54767;53.800;15.956;2023-07-13T13:47:02;3.60;;;1.80;;
67986;SDS011;54767;53.800;15.956;2023-07-13T13:49:31;2.50;;;1.80;;
67986;SDS011;54767;53.800;15.956;2023-07-13T13:51:59;1.90;;;1.70;;
67986;SDS011;54767;53.800;15.956;2023-07-13T13:54:28;2.80;;;1.90;;
67986;SDS011;54767;53.800;15.956;2023-07-13T13:56:56;4.30;;;2.10;;
67986;SDS011;54767;53.800;15.956;2023-07-13T13:59:27;2.00;;;1.70;;
67986;SDS011;54767;53.800;15.956;2023-07-13T14:04:54;2.00;;;1.80;;
67986;SDS011;54767;53.800;15.956;2023-07-13T14:07:27;3.10;;;1.70;;
67986;SDS011;54767;53.800;15.956;2023-07-13T14:09:58;3.70;;;1.70;;
67986;SDS011;54767;53.800;15.956;2023-07-13T14:12:28;3.20;;;1.80;;
67986;SDS011;54767;53.800;15.956;2023-07-13T14:17:27;2.80;;;1.40;;
67986;SDS011;54767;53.800;15.956;2023-07-13T14:19:56;2.50;;;1.50;;
67986;SDS011;54767;53.800;15.956;2023-07-13T14:22:25;2.70;;;1.40;;
67986;SDS011;54767;53.800;15.956;2023-07-13T14:24:55;1.70;;;1.50;;
67986;SDS011;54767;53.800;15.956;2023-07-13T14:27:25;4.90;;;1.90;;
67986;SDS011;54767;53.800;15.956;2023-07-13T14:29:54;3.90;;;1.90;;
67986;SDS011;54767;53.800;15.956;2023-07-13T14:32:22;2.90;;;1.70;;
67986;SDS011;54767;53.800;15.956;2023-07-13T14:34:51;3.30;;;1.70;;
67986;SDS011;54767;53.800;15.956;2023-07-13T14:37:19;2.40;;;1.80;;
67986;SDS011;54767;53.800;15.956;2023-07-13T14:39:48;2.10;;;1.90;;
67986;SDS011;54767;53.800;15.956;2023-07-13T14:42:20;3.80;;;1.90;;
67986;SDS011;54767;53.800;15.956;2023-07-13T14:44:48;3.20;;;1.80;;
67986;SDS011;54767;53.800;15.956;2023-07-13T14:47:17;1.90;;;1.50;;
67986;SDS011;54767;53.800;15.956;2023-07-13T14:49:46;1.80;;;1.70;;
67986;SDS011;54767;53.800;15.956;2023-07-13T14:52:17;3.10;;;1.90;;
67986;SDS011;54767;53.800;15.956;2023-07-13T14:54:48;3.00;;;1.90;;
67986;SDS011;54767;53.800;15.956;2023-07-13T14:57:18;4.90;;;1.90;;
67986;SDS011;54767;53.800;15.956;2023-07-13T14:59:48;3.40;;;1.70;;
67986;SDS011;54767;53.800;15.956;2023-07-13T15:05:05;1.60;;;1.40;;
67986;SDS011;54767;53.800;15.956;2023-07-13T15:07:40;2.40;;;1.80;;
67986;SDS011;54767;53.800;15.956;2023-07-13T15:13:12;3.00;;;1.80;;
67986;SDS011;54767;53.800;15.956;2023-07-13T15:15:44;1.80;;;1.70;;
67986;SDS011;54767;53.800;15.956;2023-07-13T15:18:15;1.70;;;1.60;;
67986;SDS011;54767;53.800;15.956;2023-07-13T15:20:46;3.60;;;1.70;;
67986;SDS011;54767;53.800;15.956;2023-07-13T15:23:16;2.60;;;2.10;;
67986;SDS011;54767;53.800;15.956;2023-07-13T15:25:45;3.40;;;1.80;;
67986;SDS011;54767;53.800;15.956;2023-07-13T15:28:14;2.00;;;1.80;;
67986;SDS011;54767;53.800;15.956;2023-07-13T15:33:15;2.60;;;2.00;;
67986;SDS011;54767;53.800;15.956;2023-07-13T15:35:45;1.90;;;1.70;;
67986;SDS011;54767;53.800;15.956;2023-07-13T15:38:17;1.80;;;1.70;;
67986;SDS011;54767;53.800;15.956;2023-07-13T15:40:49;2.60;;;1.90;;
67986;SDS011;54767;53.800;15.956;2023-07-13T15:43:18;2.40;;;1.70;;
67986;SDS011;54767;53.800;15.956;2023-07-13T15:45:47;4.20;;;2.00;;
67986;SDS011;54767;53.800;15.956;2023-07-13T15:50:53;8.70;;;1.90;;
67986;SDS011;54767;53.800;15.956;2023-07-13T15:53:24;3.60;;;1.70;;
67986;SDS011;54767;53.800;15.956;2023-07-13T15:55:57;3.40;;;1.90;;
67986;SDS011;54767;53.800;15.956;2023-07-13T16:00:56;4.70;;;1.90;;
67986;SDS011;54767;53.800;15.956;2023-07-13T16:03:25;2.60;;;1.70;;
67986;SDS011;54767;53.800;15.956;2023-07-13T16:05:54;2.80;;;2.00;;
67986;SDS011;54767;53.800;15.956;2023-07-13T16:08:24;3.80;;;1.70;;